createdAt,value
2022-12-05T00:01:47.857Z,40.30
2022-12-05T00:04:16.298Z,40.23
2022-12-05T00:06:45.290Z,40.49
2022-12-05T00:09:14.608Z,40.48
2022-12-05T00:11:44.622Z,40.42
2022-12-05T00:14:13.832Z,40.36
2022-12-05T00:16:43.318Z,40.64
2022-12-05T00:19:14.986Z,40.53
2022-12-05T00:21:43.180Z,40.49
2022-12-05T00:24:14.485Z,39.76
2022-12-05T00:26:42.545Z,39.45
2022-12-05T00:29:11.110Z,39.52
2022-12-05T00:31:39.367Z,39.51
2022-12-05T00:34:07.950Z,39.62
2022-12-05T00:36:37.935Z,38.44
2022-12-05T00:39:08.605Z,39.11
2022-12-05T00:41:36.775Z,38.61
2022-12-05T00:44:06.126Z,38.72
2022-12-05T00:46:34.995Z,38.83
2022-12-05T00:49:05.529Z,40.14
2022-12-05T00:51:35.815Z,41.09
2022-12-05T00:54:07.405Z,39.77
2022-12-05T00:56:35.527Z,39.04
2022-12-05T00:59:04.837Z,40.02
2022-12-05T01:01:34.831Z,38.71
2022-12-05T01:04:06.199Z,39.21
2022-12-05T01:06:34.682Z,39.22
2022-12-05T01:09:04.087Z,38.69
2022-12-05T01:11:37.759Z,39.07
2022-12-05T01:14:09.382Z,39.20
2022-12-05T01:16:39.082Z,39.01
2022-12-05T01:19:12.062Z,39.14
2022-12-05T01:21:40.133Z,39.76
2022-12-05T01:24:09.139Z,39.72
2022-12-05T01:26:38.944Z,39.77
2022-12-05T01:29:07.325Z,40.51
2022-12-05T01:31:37.991Z,39.40
2022-12-05T01:34:09.121Z,40.00
2022-12-05T01:36:39.361Z,39.37
2022-12-05T01:39:08.285Z,40.43
2022-12-05T01:41:38.931Z,40.19
2022-12-05T01:44:08.663Z,40.21
2022-12-05T01:46:38.565Z,41.30
2022-12-05T01:49:11.145Z,40.05
2022-12-05T01:51:40.735Z,40.22
2022-12-05T01:54:09.575Z,38.73
2022-12-05T01:56:40.980Z,38.34
2022-12-05T01:59:11.212Z,39.34
2022-12-05T02:01:39.954Z,39.21
2022-12-05T02:04:08.554Z,39.74
2022-12-05T02:06:36.833Z,39.68
2022-12-05T02:09:05.307Z,40.30
2022-12-05T02:11:34.829Z,40.48
2022-12-05T02:14:20.159Z,40.07
2022-12-05T02:17:01.457Z,40.55
2022-12-05T02:19:56.353Z,38.81
2022-12-05T02:22:49.883Z,39.75
2022-12-05T02:25:50.939Z,38.71
2022-12-05T02:28:45.682Z,39.43
2022-12-05T02:31:18.172Z,40.33
2022-12-05T02:33:49.522Z,40.14
2022-12-05T02:36:22.071Z,41.13
2022-12-05T02:38:54.157Z,39.19
2022-12-05T02:41:26.155Z,40.02
2022-12-05T02:43:57.418Z,39.62
2022-12-05T02:46:29.505Z,39.68
2022-12-05T02:49:00.462Z,39.25
2022-12-05T02:51:33.151Z,37.38
2022-12-05T02:54:03.009Z,38.36
2022-12-05T02:56:33.956Z,39.56
2022-12-05T02:59:02.683Z,39.00
2022-12-05T03:01:33.433Z,38.81
2022-12-05T03:04:04.513Z,39.10
2022-12-05T03:06:33.758Z,37.26
2022-12-05T03:09:04.081Z,39.05
2022-12-05T03:11:37.256Z,39.51
2022-12-05T03:14:08.396Z,38.35
2022-12-05T03:16:41.029Z,38.76
2022-12-05T03:19:14.017Z,38.05
2022-12-05T03:21:44.728Z,38.51
2022-12-05T03:24:15.207Z,39.30
2022-12-05T03:26:49.845Z,38.94
2022-12-05T03:29:31.379Z,39.17
2022-12-05T03:32:08.036Z,38.32
2022-12-05T03:34:44.632Z,39.60
2022-12-05T03:37:17.490Z,39.00
2022-12-05T03:39:49.670Z,39.20
2022-12-05T03:42:20.677Z,39.46
2022-12-05T03:44:52.729Z,40.25
2022-12-05T03:47:27.251Z,39.34
2022-12-05T03:49:58.551Z,39.67
2022-12-05T03:52:37.999Z,39.18
2022-12-05T03:55:19.356Z,40.74
2022-12-05T03:57:52.464Z,39.79
2022-12-05T04:00:22.463Z,40.45
2022-12-05T04:02:56.682Z,39.24
2022-12-05T04:05:27.349Z,40.30
2022-12-05T04:08:00.029Z,39.05
2022-12-05T04:10:30.851Z,40.53
2022-12-05T04:13:17.997Z,40.21
2022-12-05T04:16:08.985Z,40.24
2022-12-05T04:18:43.108Z,40.48
2022-12-05T04:21:29.662Z,41.46
2022-12-05T04:24:15.410Z,41.95
2022-12-05T04:26:47.758Z,40.59
2022-12-05T04:29:19.919Z,39.44
2022-12-05T04:31:51.698Z,39.48
2022-12-05T04:34:22.920Z,39.94
2022-12-05T04:36:54.772Z,40.02
2022-12-05T04:39:25.830Z,39.40
2022-12-05T04:41:55.293Z,39.65
2022-12-05T04:44:26.789Z,39.38
2022-12-05T04:46:55.103Z,39.28
2022-12-05T04:49:26.926Z,39.78
2022-12-05T04:51:57.547Z,39.34
2022-12-05T04:54:29.393Z,40.30
2022-12-05T04:57:05.443Z,38.74
2022-12-05T04:59:33.875Z,38.72
2022-12-05T05:02:05.816Z,37.97
2022-12-05T05:04:38.806Z,38.48
2022-12-05T05:07:08.378Z,38.33
2022-12-05T05:09:37.328Z,38.43
2022-12-05T05:12:06.368Z,38.69
2022-12-05T05:14:34.809Z,38.76
2022-12-05T05:17:03.130Z,38.49
2022-12-05T05:19:32.037Z,38.50
2022-12-05T05:22:01.628Z,38.82
2022-12-05T05:24:30.086Z,38.81
2022-12-05T05:26:58.263Z,39.24
2022-12-05T05:29:26.680Z,39.34
2022-12-05T05:31:54.851Z,38.04
2022-12-05T05:34:23.350Z,37.69
2022-12-05T05:36:53.168Z,38.84
2022-12-05T05:39:22.931Z,39.74
2022-12-05T05:41:51.124Z,39.10
2022-12-05T05:44:19.634Z,39.37
2022-12-05T05:46:47.834Z,40.40
2022-12-05T05:49:16.166Z,39.87
2022-12-05T05:51:44.257Z,38.88
2022-12-05T05:54:12.646Z,40.03
2022-12-05T05:56:42.596Z,39.95
2022-12-05T05:59:10.923Z,40.76
2022-12-05T06:01:39.028Z,40.98
2022-12-05T06:04:07.936Z,40.17
2022-12-05T06:06:36.464Z,40.68
2022-12-05T06:09:07.307Z,41.12
2022-12-05T06:11:35.378Z,40.72
2022-12-05T06:14:05.231Z,40.25
2022-12-05T06:16:33.668Z,41.50
2022-12-05T06:19:02.147Z,41.59
2022-12-05T06:21:30.245Z,40.91
2022-12-05T06:23:58.793Z,40.01
2022-12-05T06:26:26.919Z,39.35
2022-12-05T06:28:55.617Z,40.25
2022-12-05T06:31:31.115Z,39.61
2022-12-05T06:34:01.986Z,40.29
2022-12-05T06:36:30.348Z,41.55
2022-12-05T06:38:59.223Z,41.99
2022-12-05T06:41:28.010Z,41.34
2022-12-05T06:44:01.927Z,40.52
2022-12-05T06:46:32.017Z,40.42
2022-12-05T06:49:00.547Z,40.37
2022-12-05T06:51:28.788Z,40.09
2022-12-05T06:53:57.486Z,39.24
2022-12-05T06:56:25.554Z,39.35
2022-12-05T06:58:55.758Z,39.59
2022-12-05T07:01:40.816Z,39.48
2022-12-05T07:04:13.327Z,40.26
2022-12-05T07:06:48.695Z,40.42
2022-12-05T07:09:19.785Z,40.76
2022-12-05T07:11:48.786Z,41.50
2022-12-05T07:14:38.737Z,40.21
2022-12-05T07:17:06.244Z,41.17
2022-12-05T07:19:36.061Z,40.04
2022-12-05T07:22:04.302Z,40.76
2022-12-05T07:24:32.618Z,40.93
2022-12-05T07:27:00.747Z,40.26
2022-12-05T07:29:29.227Z,40.80
2022-12-05T07:31:57.397Z,41.36
2022-12-05T07:34:26.393Z,40.75
2022-12-05T07:36:55.891Z,40.80
2022-12-05T07:39:24.219Z,41.30
2022-12-05T07:41:52.361Z,41.03
2022-12-05T07:44:20.618Z,40.52
2022-12-05T07:46:48.963Z,40.47
2022-12-05T07:49:17.363Z,40.06
2022-12-05T07:51:45.573Z,40.14
2022-12-05T07:54:15.384Z,41.01
2022-12-05T07:56:47.713Z,41.37
2022-12-05T07:59:16.659Z,40.67
2022-12-05T08:01:44.813Z,40.36
2022-12-05T08:04:15.595Z,39.97
2022-12-05T08:06:44.281Z,39.06
2022-12-05T08:09:12.943Z,38.55
2022-12-05T08:11:42.423Z,39.31
2022-12-05T08:14:11.452Z,40.43
2022-12-05T08:16:39.692Z,39.73
2022-12-05T08:19:09.311Z,39.11
2022-12-05T08:21:37.514Z,39.23
2022-12-05T08:24:06.746Z,40.03
2022-12-05T08:26:36.122Z,38.14
2022-12-05T08:29:08.018Z,37.36
2022-12-05T08:31:37.854Z,37.35
2022-12-05T08:34:06.371Z,36.69
2022-12-05T08:36:34.469Z,36.96
2022-12-05T08:39:05.419Z,37.29
2022-12-05T08:41:34.511Z,37.25
2022-12-05T08:44:05.772Z,37.54
2022-12-05T08:46:35.178Z,37.46
2022-12-05T08:49:04.074Z,36.97
2022-12-05T08:51:32.228Z,37.38
2022-12-05T08:54:03.276Z,36.29
2022-12-05T08:56:32.959Z,36.16
2022-12-05T08:59:05.828Z,35.87
2022-12-05T09:01:38.795Z,35.11
2022-12-05T09:04:08.377Z,35.73
2022-12-05T09:06:37.276Z,35.70
2022-12-05T09:09:08.024Z,35.48
2022-12-05T09:11:38.086Z,35.26
2022-12-05T09:14:06.955Z,34.91
2022-12-05T09:16:39.137Z,34.17
2022-12-05T09:19:13.324Z,33.48
2022-12-05T09:21:41.410Z,33.64
2022-12-05T09:24:11.650Z,33.06
2022-12-05T09:26:40.435Z,32.93
2022-12-05T09:29:15.816Z,32.52
2022-12-05T09:31:46.997Z,31.94
2022-12-05T09:34:15.755Z,31.95
2022-12-05T09:36:44.297Z,31.01
2022-12-05T09:39:12.887Z,29.99
2022-12-05T09:42:05.852Z,28.34
2022-12-05T09:44:42.648Z,28.75
2022-12-05T09:47:19.026Z,29.66
2022-12-05T09:49:51.511Z,30.47
2022-12-05T09:52:26.405Z,30.46
2022-12-05T09:54:55.353Z,30.94
2022-12-05T09:57:33.612Z,30.31
2022-12-05T10:00:04.811Z,30.90
2022-12-05T10:02:42.985Z,30.17
2022-12-05T10:05:17.061Z,29.39
2022-12-05T10:07:50.691Z,28.05
2022-12-05T10:10:27.149Z,25.50
2022-12-05T10:13:04.814Z,22.75
2022-12-05T10:15:35.748Z,21.03
2022-12-05T10:18:12.556Z,19.20
2022-12-05T10:20:46.005Z,19.25
2022-12-05T10:23:34.521Z,18.18
2022-12-05T10:26:09.112Z,18.21
2022-12-05T10:28:40.876Z,17.61
2022-12-05T10:31:11.527Z,17.49
2022-12-05T10:33:44.461Z,17.74
2022-12-05T10:36:14.216Z,18.20
2022-12-05T10:38:43.559Z,17.79
2022-12-05T10:41:14.196Z,16.76
2022-12-05T10:43:44.358Z,16.17
2022-12-05T10:46:17.283Z,17.24
2022-12-05T10:48:47.062Z,15.92
2022-12-05T10:51:18.188Z,17.22
2022-12-05T10:53:50.115Z,19.38
2022-12-05T10:56:41.074Z,20.81
2022-12-05T10:59:10.103Z,23.38
2022-12-05T11:01:39.584Z,24.67
2022-12-05T11:04:18.994Z,25.23
2022-12-05T11:06:55.522Z,26.00
2022-12-05T11:09:25.058Z,27.60
2022-12-05T11:12:15.290Z,27.59
2022-12-05T11:14:55.610Z,28.21
2022-12-05T11:17:26.931Z,28.63
2022-12-05T11:19:56.555Z,29.24
2022-12-05T11:22:33.195Z,29.18
2022-12-05T11:25:01.564Z,30.36
2022-12-05T11:27:31.926Z,30.22
2022-12-05T11:30:03.201Z,30.10
2022-12-05T11:32:33.459Z,29.57
2022-12-05T11:35:14.686Z,28.83
2022-12-05T11:37:46.383Z,28.88
2022-12-05T11:40:18.155Z,28.80
2022-12-05T11:43:06.404Z,27.82
2022-12-05T11:45:45.893Z,28.05
2022-12-05T11:48:27.887Z,28.00
2022-12-05T11:51:10.075Z,27.78
2022-12-05T11:53:48.823Z,27.81
2022-12-05T11:56:27.574Z,27.89
2022-12-05T11:59:18.893Z,27.32
2022-12-05T12:01:55.036Z,27.44
2022-12-05T12:04:36.243Z,27.31
2022-12-05T12:07:17.056Z,26.96
2022-12-05T12:09:51.075Z,26.92
2022-12-05T12:12:26.282Z,27.11
2022-12-05T12:15:01.312Z,27.14
2022-12-05T12:17:36.119Z,26.79
2022-12-05T12:20:22.648Z,26.65
2022-12-05T12:23:06.936Z,27.06
2022-12-05T12:25:44.042Z,27.53
2022-12-05T12:28:25.903Z,27.10
2022-12-05T12:31:03.704Z,27.34
2022-12-05T12:33:35.997Z,27.19
2022-12-05T12:36:13.134Z,26.79
2022-12-05T12:38:52.552Z,26.78
2022-12-05T12:41:34.378Z,27.21
2022-12-05T12:44:04.835Z,26.84
2022-12-05T12:46:44.680Z,27.52
2022-12-05T12:49:33.315Z,27.71
2022-12-05T12:52:03.721Z,28.06
2022-12-05T12:55:03.893Z,27.27
2022-12-05T12:57:56.552Z,27.67
2022-12-05T13:00:25.229Z,27.12
2022-12-05T13:02:57.363Z,27.81
2022-12-05T13:05:34.053Z,27.42
2022-12-05T13:08:06.231Z,27.92
2022-12-05T13:10:39.653Z,27.82
2022-12-05T13:13:09.871Z,28.92
2022-12-05T13:15:41.750Z,29.36
2022-12-05T13:18:16.169Z,28.67
2022-12-05T13:20:44.875Z,29.39
2022-12-05T13:23:14.490Z,29.28
2022-12-05T13:25:48.198Z,29.19
2022-12-05T13:28:35.484Z,28.88
2022-12-05T13:31:04.978Z,29.62
2022-12-05T13:33:35.869Z,29.37
2022-12-05T13:36:28.034Z,29.08
2022-12-05T13:39:18.213Z,29.40
2022-12-05T13:42:07.436Z,29.55
2022-12-05T13:44:41.584Z,29.91
2022-12-05T13:47:23.095Z,30.01
2022-12-05T13:49:54.325Z,30.25
2022-12-05T13:52:25.400Z,30.43
2022-12-05T13:54:56.388Z,29.72
2022-12-05T13:57:51.493Z,29.70
2022-12-05T14:00:26.475Z,30.34
2022-12-05T14:02:56.958Z,30.65
2022-12-05T14:05:39.768Z,30.44
2022-12-05T14:08:47.571Z,30.34
2022-12-05T14:11:16.226Z,31.54
2022-12-05T14:13:46.298Z,31.21
2022-12-05T14:16:45.132Z,30.43
2022-12-05T14:19:35.007Z,30.93
2022-12-05T14:22:14.527Z,30.89
2022-12-05T14:24:50.693Z,31.15
2022-12-05T14:27:21.749Z,31.62
2022-12-05T14:30:00.547Z,31.40
2022-12-05T14:32:31.769Z,31.67
2022-12-05T14:35:05.493Z,31.54
2022-12-05T14:37:35.995Z,31.70
2022-12-05T14:40:19.574Z,31.42
2022-12-05T14:42:54.197Z,31.44
2022-12-05T14:45:29.428Z,31.44
2022-12-05T14:47:59.003Z,32.37
2022-12-05T14:50:40.924Z,31.92
2022-12-05T14:53:32.022Z,31.61
2022-12-05T14:56:08.058Z,31.87
2022-12-05T14:58:40.015Z,32.34
2022-12-05T15:01:16.323Z,32.05
2022-12-05T15:04:07.949Z,31.56
2022-12-05T15:06:38.817Z,32.01
2022-12-05T15:09:39.210Z,32.13
2022-12-05T15:12:11.801Z,32.48
2022-12-05T15:14:46.461Z,32.06
2022-12-05T15:17:17.638Z,32.28
2022-12-05T15:19:50.626Z,32.07
2022-12-05T15:22:21.240Z,32.17
2022-12-05T15:24:49.601Z,32.31
2022-12-05T15:27:17.938Z,32.52
2022-12-05T15:29:46.406Z,32.56
2022-12-05T15:32:26.279Z,31.80
2022-12-05T15:34:59.087Z,32.01
2022-12-05T15:37:30.139Z,32.18
2022-12-05T15:40:00.630Z,32.11
2022-12-05T15:42:31.285Z,31.92
2022-12-05T15:45:21.145Z,31.50
2022-12-05T15:47:52.309Z,32.25
2022-12-05T15:50:25.483Z,32.11
2022-12-05T15:53:00.013Z,32.11
2022-12-05T15:55:32.788Z,32.04
2022-12-05T15:58:23.532Z,31.75
2022-12-05T16:00:55.700Z,32.06
2022-12-05T16:03:27.491Z,32.11
2022-12-05T16:05:57.988Z,32.36
2022-12-05T16:08:30.334Z,32.61
2022-12-05T16:10:58.850Z,32.37
2022-12-05T16:13:28.483Z,32.03
2022-12-05T16:15:57.800Z,32.78
2022-12-05T16:18:29.434Z,32.15
2022-12-05T16:20:58.317Z,32.64
2022-12-05T16:23:30.153Z,32.54
2022-12-05T16:26:21.677Z,31.81
2022-12-05T16:28:58.714Z,31.72
2022-12-05T16:31:27.395Z,32.07
2022-12-05T16:34:05.094Z,31.71
2022-12-05T16:36:33.693Z,31.95
2022-12-05T16:39:03.417Z,31.85
2022-12-05T16:41:36.332Z,31.53
2022-12-05T16:44:13.072Z,31.94
2022-12-05T16:46:46.312Z,31.61
2022-12-05T16:49:21.131Z,31.11
2022-12-05T16:51:56.500Z,31.05
2022-12-05T16:54:24.657Z,31.74
2022-12-05T16:56:53.202Z,31.51
2022-12-05T16:59:25.025Z,31.04
2022-12-05T17:01:53.508Z,31.15
2022-12-05T17:04:23.231Z,31.27
2022-12-05T17:06:51.676Z,31.25
2022-12-05T17:09:19.746Z,31.54
2022-12-05T17:11:49.072Z,31.47
2022-12-05T17:14:18.814Z,31.43
2022-12-05T17:16:48.739Z,30.10
2022-12-05T17:19:17.158Z,31.29
2022-12-05T17:21:46.837Z,31.49
2022-12-05T17:24:17.919Z,31.24
2022-12-05T17:26:46.603Z,31.83
2022-12-05T17:29:15.077Z,31.90
2022-12-05T17:31:43.178Z,31.89
2022-12-05T17:34:16.883Z,31.27
2022-12-05T17:36:46.707Z,31.40
2022-12-05T17:39:15.219Z,31.60
2022-12-05T17:41:43.286Z,32.01
2022-12-05T17:44:13.799Z,31.65
2022-12-05T17:46:42.979Z,31.45
2022-12-05T17:49:13.737Z,31.72
2022-12-05T17:52:05.462Z,31.77
2022-12-05T17:54:31.930Z,31.78
2022-12-05T17:57:00.141Z,31.87
2022-12-05T17:59:28.605Z,31.75
2022-12-05T18:01:56.685Z,31.89
2022-12-05T18:04:25.170Z,32.01
2022-12-05T18:06:53.376Z,31.86
2022-12-05T18:09:22.747Z,31.56
2022-12-05T18:11:52.138Z,31.21
2022-12-05T18:14:23.391Z,31.57
2022-12-05T18:16:51.790Z,31.93
2022-12-05T18:19:20.834Z,31.95
2022-12-05T18:21:48.899Z,31.50
2022-12-05T18:24:17.284Z,31.79
2022-12-05T18:26:45.761Z,31.63
2022-12-05T18:29:16.180Z,31.63
2022-12-05T18:31:44.323Z,31.71
2022-12-05T18:34:12.908Z,31.89
2022-12-05T18:36:41.080Z,31.70
2022-12-05T18:39:12.488Z,31.05
2022-12-05T18:41:40.563Z,31.51
2022-12-05T18:44:10.073Z,31.24
2022-12-05T18:46:39.686Z,31.34
2022-12-05T18:49:08.037Z,31.23
2022-12-05T18:51:36.080Z,31.17
2022-12-05T18:54:04.747Z,31.64
2022-12-05T18:56:35.762Z,31.46
2022-12-05T18:59:06.013Z,31.45
2022-12-05T19:01:35.815Z,31.67
2022-12-05T19:04:07.644Z,32.00
2022-12-05T19:06:37.440Z,32.12
2022-12-05T19:09:07.806Z,32.10
2022-12-05T19:11:36.484Z,31.93
2022-12-05T19:14:06.241Z,32.00
2022-12-05T19:16:35.874Z,31.88
2022-12-05T19:19:09.337Z,31.34
2022-12-05T19:21:38.045Z,32.15
2022-12-05T19:24:08.278Z,31.58
2022-12-05T19:26:36.809Z,31.91
2022-12-05T19:29:05.282Z,32.07
2022-12-05T19:31:35.821Z,32.56
2022-12-05T19:34:06.800Z,32.12
2022-12-05T19:36:39.561Z,31.69
2022-12-05T19:39:10.190Z,32.33
2022-12-05T19:41:38.301Z,32.96
2022-12-05T19:44:06.946Z,33.05
2022-12-05T19:46:35.303Z,33.17
2022-12-05T19:49:06.749Z,33.19
2022-12-05T19:51:35.766Z,33.65
2022-12-05T19:54:05.811Z,33.82
2022-12-05T19:56:35.289Z,33.89
2022-12-05T19:59:04.317Z,34.41
2022-12-05T20:01:34.782Z,34.19
2022-12-05T20:04:06.705Z,34.52
2022-12-05T20:06:36.767Z,34.98
2022-12-05T20:09:05.892Z,35.35
2022-12-05T20:11:34.198Z,35.30
2022-12-05T20:14:03.119Z,35.58
2022-12-05T20:16:31.466Z,35.69
2022-12-05T20:19:00.185Z,35.57
2022-12-05T20:21:30.991Z,35.48
2022-12-05T20:24:00.869Z,35.74
2022-12-05T20:26:30.591Z,35.79
2022-12-05T20:29:00.541Z,36.39
2022-12-05T20:31:30.089Z,36.26
2022-12-05T20:33:58.771Z,36.01
2022-12-05T20:36:29.871Z,35.62
2022-12-05T20:38:58.507Z,34.22
2022-12-05T20:41:27.457Z,35.48
2022-12-05T20:43:57.566Z,35.61
2022-12-05T20:46:26.275Z,35.52
2022-12-05T20:48:57.538Z,35.71
2022-12-05T20:51:27.437Z,35.47
2022-12-05T20:53:57.788Z,35.43
2022-12-05T20:56:28.373Z,35.50
2022-12-05T20:58:58.129Z,35.53
2022-12-05T21:01:27.669Z,35.37
2022-12-05T21:03:56.675Z,35.45
2022-12-05T21:06:26.094Z,35.55
2022-12-05T21:08:55.238Z,35.51
2022-12-05T21:11:25.754Z,35.58
2022-12-05T21:13:56.958Z,35.52
2022-12-05T21:16:25.366Z,35.94
2022-12-05T21:18:55.657Z,36.07
2022-12-05T21:21:25.812Z,35.84
2022-12-05T21:23:56.156Z,36.09
2022-12-05T21:26:26.685Z,35.72
2022-12-05T21:28:55.230Z,35.97
2022-12-05T21:31:28.323Z,36.17
2022-12-05T21:33:58.042Z,36.12
2022-12-05T21:36:29.433Z,36.23
2022-12-05T21:38:57.922Z,36.66
2022-12-05T21:41:27.651Z,36.15
2022-12-05T21:43:56.223Z,36.10
2022-12-05T21:46:24.803Z,36.33
2022-12-05T21:48:53.737Z,36.11
2022-12-05T21:51:21.790Z,36.12
2022-12-05T21:53:50.589Z,36.29
2022-12-05T21:56:22.756Z,35.85
2022-12-05T21:58:53.122Z,35.61
2022-12-05T22:01:22.874Z,35.82
2022-12-05T22:03:53.668Z,36.02
2022-12-05T22:06:21.745Z,35.94
2022-12-05T22:08:50.230Z,36.11
2022-12-05T22:11:20.163Z,35.63
2022-12-05T22:13:48.998Z,35.81
2022-12-05T22:16:19.058Z,35.82
2022-12-05T22:18:47.822Z,36.03
2022-12-05T22:21:17.381Z,35.77
2022-12-05T22:23:45.818Z,36.11
2022-12-05T22:26:17.217Z,35.64
2022-12-05T22:28:45.692Z,35.59
2022-12-05T22:31:15.385Z,35.97
2022-12-05T22:33:45.908Z,35.51
2022-12-05T22:36:16.226Z,35.53
2022-12-05T22:38:45.767Z,35.76
2022-12-05T22:41:15.412Z,35.69
2022-12-05T22:43:45.083Z,35.68
2022-12-05T22:46:14.213Z,35.52
2022-12-05T22:48:42.768Z,35.58
2022-12-05T22:51:12.374Z,35.31
2022-12-05T22:53:40.940Z,35.73
2022-12-05T22:56:10.548Z,35.56
2022-12-05T22:58:39.205Z,35.74
2022-12-05T23:01:14.367Z,34.84
2022-12-05T23:03:43.858Z,35.65
2022-12-05T23:06:14.360Z,35.32
2022-12-05T23:08:43.790Z,35.45
2022-12-05T23:11:12.804Z,35.76
2022-12-05T23:13:41.400Z,35.37
2022-12-05T23:16:11.413Z,35.15
2022-12-05T23:18:47.829Z,35.51
2022-12-05T23:21:19.450Z,34.98
2022-12-05T23:23:48.381Z,35.14
2022-12-05T23:26:17.134Z,35.28
2022-12-05T23:28:45.588Z,35.41
2022-12-05T23:31:14.487Z,34.85
2022-12-05T23:33:43.000Z,35.26
2022-12-05T23:36:12.109Z,35.05
2022-12-05T23:38:43.141Z,34.84
2022-12-05T23:41:13.567Z,35.11
2022-12-05T23:43:42.515Z,35.66
2022-12-05T23:46:11.691Z,35.64
2022-12-05T23:48:40.174Z,35.99
2022-12-05T23:51:10.264Z,35.66
2022-12-05T23:53:43.328Z,35.79
2022-12-05T23:56:13.234Z,36.31
2022-12-05T23:58:41.651Z,36.46
